Ina Theresa — V7UJ2 — position and weather

sailwx.info

Track history (hours):
 
Tides and Currents Weather Stations Pressure Air Temp Water Temp Dewpoint Dewpoint Depression Visibility Wind Speed Wind Dir Waves Ship Positions

Ina Theresa

Last reported at 2017-Nov-16 16:24 UTC. Time now 2017-Nov-23 18:20 UTC.
Position N 31°06' E 122°22'.

Length 122 m; draft 8.8 m.

Type: Ship. MMSI: 538004548.

Date/timePositionNaut miles runAvg speedWind from/ knotsBaromVisibWave heightAir tempDewpointWater temp
2017-Nov-16 16:24N 31°06' E 122°22'3 7.3
2017-Nov-16 16:00N 31°06' E 122°19'713.2
2017-Nov-16 15:30N 31°10' E 122°12'713.7
2017-Nov-16 15:00N 31°14' E 122°06'713.8
2017-Nov-16 14:30N 31°15' E 121°58'713.0
2017-Nov-16 14:00N 31°16' E 121°51'612.9
2017-Nov-16 13:30N 31°19' E 121°44'4 7.1
2017-Nov-16 12:59N 31°20' E 121°40'0 0.0
2017-Nov-16 12:23N 31°20' E 121°40'0 0.0
2017-Nov-16 11:59N 31°20' E 121°40'0 0.0
2017-Nov-16 11:29N 31°20' E 121°40'0 0.0
2017-Nov-16 10:59N 31°20' E 121°40'0 0.0
2017-Nov-16 10:20N 31°20' E 121°40'0 0.0
2017-Nov-16 09:59N 31°20' E 121°40'0 0.0
2017-Nov-16 09:29N 31°20' E 121°40'0 0.1
2017-Nov-16 08:56N 31°20' E 121°40'0 0.1
2017-Nov-16 08:29N 31°20' E 121°40'0 0.0
2017-Nov-16 07:56N 31°20' E 121°40'0 0.0
2017-Nov-16 07:26N 31°20' E 121°40'0 0.0
2017-Nov-16 06:59N 31°20' E 121°40'0 0.0
2017-Nov-16 06:26N 31°20' E 121°40'0 0.0
2017-Nov-16 05:59N 31°20' E 121°40'0 0.0
2017-Nov-16 05:29N 31°20' E 121°40'0 0.0
2017-Nov-16 04:59N 31°20' E 121°40'0 0.0
2017-Nov-16 04:29N 31°20' E 121°40'0 0.0
2017-Nov-16 03:59N 31°20' E 121°40'0 0.0
2017-Nov-16 03:29N 31°20' E 121°40'0 0.0
2017-Nov-16 02:59N 31°20' E 121°40'0 0.1
2017-Nov-16 02:26N 31°20' E 121°40'0 0.1
2017-Nov-16 01:59N 31°20' E 121°40'0 0.1
2017-Nov-16 01:29N 31°20' E 121°40'0 0.0
2017-Nov-16 00:59N 31°20' E 121°40'1 1.3
2017-Nov-16 00:30N 31°21' E 121°40'3 5.8
2017-Nov-16 00:00N 31°20' E 121°43'510.7
2017-Nov-15 23:30N 31°17' E 121°48'510.4
2017-Nov-15 23:00N 31°16' E 121°54'510.3
2017-Nov-15 22:30N 31°15' E 122°00'510.1
2017-Nov-15 22:00N 31°14' E 122°06'4 8.3
2017-Nov-15 21:30N 31°11' E 122°10'3 6.8
2017-Nov-15 21:00N 31°09' E 122°13'3 6.9
2017-Nov-15 20:30N 31°07' E 122°16'4 7.7
2017-Nov-15 19:57N 31°06' E 122°21'  
Track history (hours):
 
Tides and Currents Weather Stations Pressure Air Temp Water Temp Dewpoint Dewpoint Depression Visibility Wind Speed Wind Dir Waves Ship Positions

Ina Theresa

Last reported at 2017-Nov-16 16:24 UTC. Time now 2017-Nov-23 18:20 UTC.
Position N 31°06' E 122°22'.

Length 122 m; draft 8.8 m.

Type: Ship. MMSI: 538004548.

Date/timePositionNaut miles runAvg speedWind from/ knotsBaromVisibWave heightAir tempDewpointWater temp
2017-Nov-16 16:24N 31°06' E 122°22'3 7.3
2017-Nov-16 16:00N 31°06' E 122°19'713.2
2017-Nov-16 15:30N 31°10' E 122°12'713.7
2017-Nov-16 15:00N 31°14' E 122°06'713.8
2017-Nov-16 14:30N 31°15' E 121°58'713.0
2017-Nov-16 14:00N 31°16' E 121°51'612.9
2017-Nov-16 13:30N 31°19' E 121°44'4 7.1
2017-Nov-16 12:59N 31°20' E 121°40'0 0.0
2017-Nov-16 12:23N 31°20' E 121°40'0 0.0
2017-Nov-16 11:59N 31°20' E 121°40'0 0.0
2017-Nov-16 11:29N 31°20' E 121°40'0 0.0
2017-Nov-16 10:59N 31°20' E 121°40'0 0.0
2017-Nov-16 10:20N 31°20' E 121°40'0 0.0
2017-Nov-16 09:59N 31°20' E 121°40'0 0.0
2017-Nov-16 09:29N 31°20' E 121°40'0 0.1
2017-Nov-16 08:56N 31°20' E 121°40'0 0.1
2017-Nov-16 08:29N 31°20' E 121°40'0 0.0
2017-Nov-16 07:56N 31°20' E 121°40'0 0.0
2017-Nov-16 07:26N 31°20' E 121°40'0 0.0
2017-Nov-16 06:59N 31°20' E 121°40'0 0.0
2017-Nov-16 06:26N 31°20' E 121°40'0 0.0
2017-Nov-16 05:59N 31°20' E 121°40'0 0.0
2017-Nov-16 05:29N 31°20' E 121°40'0 0.0
2017-Nov-16 04:59N 31°20' E 121°40'0 0.0
2017-Nov-16 04:29N 31°20' E 121°40'0 0.0
2017-Nov-16 03:59N 31°20' E 121°40'0 0.0
2017-Nov-16 03:29N 31°20' E 121°40'0 0.0
2017-Nov-16 02:59N 31°20' E 121°40'0 0.1
2017-Nov-16 02:26N 31°20' E 121°40'0 0.1
2017-Nov-16 01:59N 31°20' E 121°40'0 0.1
2017-Nov-16 01:29N 31°20' E 121°40'0 0.0
2017-Nov-16 00:59N 31°20' E 121°40'1 1.3
2017-Nov-16 00:30N 31°21' E 121°40'3 5.8
2017-Nov-16 00:00N 31°20' E 121°43'510.7
2017-Nov-15 23:30N 31°17' E 121°48'510.4
2017-Nov-15 23:00N 31°16' E 121°54'510.3
2017-Nov-15 22:30N 31°15' E 122°00'510.1
2017-Nov-15 22:00N 31°14' E 122°06'4 8.3
2017-Nov-15 21:30N 31°11' E 122°10'3 6.8
2017-Nov-15 21:00N 31°09' E 122°13'3 6.9
2017-Nov-15 20:30N 31°07' E 122°16'4 7.7
2017-Nov-15 19:57N 31°06' E 122°21'  

Dump ship's entire track history